sensor_id;sensor_type;location;lat;lon;timestamp;pressure;altitude;pressure_sealevel;temperature;humidity
51289;BME280;37372;52.294;5.152;2023-02-14T00:01:33;103497.28;;;2.51;82.33
51289;BME280;37372;52.294;5.152;2023-02-14T00:03:59;103507.66;;;2.57;82.80
51289;BME280;37372;52.294;5.152;2023-02-14T00:06:26;103493.25;;;2.57;82.15
51289;BME280;37372;52.294;5.152;2023-02-14T00:08:52;103495.47;;;2.52;82.03
51289;BME280;37372;52.294;5.152;2023-02-14T00:11:19;103496.78;;;2.46;82.28
51289;BME280;37372;52.294;5.152;2023-02-14T00:13:45;103498.72;;;2.44;82.46
51289;BME280;37372;52.294;5.152;2023-02-14T00:16:30;103495.50;;;2.39;82.23
51289;BME280;37372;52.294;5.152;2023-02-14T00:18:56;103489.44;;;2.35;82.34
51289;BME280;37372;52.294;5.152;2023-02-14T00:21:28;103495.94;;;2.33;82.38
51289;BME280;37372;52.294;5.152;2023-02-14T00:23:53;103490.00;;;2.28;82.08
51289;BME280;37372;52.294;5.152;2023-02-14T00:26:19;103489.34;;;2.24;82.01
51289;BME280;37372;52.294;5.152;2023-02-14T00:28:44;103488.59;;;2.22;81.98
51289;BME280;37372;52.294;5.152;2023-02-14T00:31:10;103491.41;;;2.21;82.27
51289;BME280;37372;52.294;5.152;2023-02-14T00:33:36;103499.66;;;2.19;82.32
51289;BME280;37372;52.294;5.152;2023-02-14T00:36:03;103487.31;;;2.15;82.00
51289;BME280;37372;52.294;5.152;2023-02-14T00:38:29;103481.22;;;2.11;82.02
51289;BME280;37372;52.294;5.152;2023-02-14T00:40:54;103482.97;;;2.12;82.30
51289;BME280;37372;52.294;5.152;2023-02-14T00:43:20;103484.34;;;2.18;82.35
51289;BME280;37372;52.294;5.152;2023-02-14T00:45:45;103479.28;;;2.26;83.03
51289;BME280;37372;52.294;5.152;2023-02-14T00:48:10;103475.72;;;2.26;83.07
51289;BME280;37372;52.294;5.152;2023-02-14T00:50:35;103475.59;;;2.27;83.09
51289;BME280;37372;52.294;5.152;2023-02-14T00:53:01;103470.91;;;2.29;83.08
51289;BME280;37372;52.294;5.152;2023-02-14T00:55:26;103466.47;;;2.28;82.51
51289;BME280;37372;52.294;5.152;2023-02-14T00:57:51;103469.31;;;2.27;82.98
51289;BME280;37372;52.294;5.152;2023-02-14T01:00:17;103465.06;;;2.23;83.16
51289;BME280;37372;52.294;5.152;2023-02-14T01:02:42;103463.31;;;2.34;83.50
51289;BME280;37372;52.294;5.152;2023-02-14T01:05:08;103457.91;;;2.34;83.50
51289;BME280;37372;52.294;5.152;2023-02-14T01:07:33;103450.53;;;2.36;83.56
51289;BME280;37372;52.294;5.152;2023-02-14T01:09:58;103456.38;;;2.30;82.66
51289;BME280;37372;52.294;5.152;2023-02-14T01:12:24;103452.28;;;2.25;83.12
51289;BME280;37372;52.294;5.152;2023-02-14T01:14:49;103451.97;;;2.16;82.50
51289;BME280;37372;52.294;5.152;2023-02-14T01:17:14;103449.06;;;2.20;83.82
51289;BME280;37372;52.294;5.152;2023-02-14T01:19:40;103442.56;;;2.22;83.09
51289;BME280;37372;52.294;5.152;2023-02-14T01:22:07;103444.06;;;2.26;83.43
51289;BME280;37372;52.294;5.152;2023-02-14T01:24:32;103439.50;;;2.27;83.33
51289;BME280;37372;52.294;5.152;2023-02-14T01:26:57;103441.34;;;2.26;83.58
51289;BME280;37372;52.294;5.152;2023-02-14T01:29:23;103447.53;;;2.28;83.44
51289;BME280;37372;52.294;5.152;2023-02-14T01:31:48;103439.16;;;2.31;83.79
51289;BME280;37372;52.294;5.152;2023-02-14T01:34:14;103435.38;;;2.34;84.23
51289;BME280;37372;52.294;5.152;2023-02-14T01:36:39;103437.75;;;2.38;84.54
51289;BME280;37372;52.294;5.152;2023-02-14T01:39:07;103437.38;;;2.43;85.01
51289;BME280;37372;52.294;5.152;2023-02-14T01:41:36;103441.50;;;2.49;85.24
51289;BME280;37372;52.294;5.152;2023-02-14T01:46:32;103442.22;;;2.51;84.90
51289;BME280;37372;52.294;5.152;2023-02-14T01:49:02;103450.16;;;2.54;85.49
51289;BME280;37372;52.294;5.152;2023-02-14T01:51:30;103450.72;;;2.46;84.59
51289;BME280;37372;52.294;5.152;2023-02-14T01:53:57;103447.94;;;2.35;84.41
51289;BME280;37372;52.294;5.152;2023-02-14T01:56:32;103450.56;;;2.24;84.22
51289;BME280;37372;52.294;5.152;2023-02-14T01:58:58;103446.69;;;2.15;83.90
51289;BME280;37372;52.294;5.152;2023-02-14T02:01:26;103444.75;;;2.04;83.91
51289;BME280;37372;52.294;5.152;2023-02-14T02:03:58;103450.03;;;2.06;84.38
51289;BME280;37372;52.294;5.152;2023-02-14T02:06:37;103441.63;;;1.98;83.91
51289;BME280;37372;52.294;5.152;2023-02-14T02:09:14;103434.72;;;1.94;84.10
51289;BME280;37372;52.294;5.152;2023-02-14T02:11:41;103436.09;;;1.86;83.66
51289;BME280;37372;52.294;5.152;2023-02-14T02:14:13;103438.38;;;1.80;83.75
51289;BME280;37372;52.294;5.152;2023-02-14T02:20:36;103441.75;;;1.71;83.66
51289;BME280;37372;52.294;5.152;2023-02-14T02:36:54;103434.72;;;1.81;84.09
51289;BME280;37372;52.294;5.152;2023-02-14T02:40:02;103432.66;;;1.84;84.09
51289;BME280;37372;52.294;5.152;2023-02-14T02:45:30;103435.16;;;1.75;83.97
51289;BME280;37372;52.294;5.152;2023-02-14T02:48:14;103428.56;;;1.66;83.60
51289;BME280;37372;52.294;5.152;2023-02-14T02:50:46;103429.09;;;1.58;83.44
51289;BME280;37372;52.294;5.152;2023-02-14T02:53:43;103432.34;;;1.51;83.37
51289;BME280;37372;52.294;5.152;2023-02-14T02:56:18;103436.16;;;1.48;83.60
51289;BME280;37372;52.294;5.152;2023-02-14T02:59:18;103432.03;;;1.43;83.35
51289;BME280;37372;52.294;5.152;2023-02-14T03:04:23;103428.34;;;1.44;83.62
51289;BME280;37372;52.294;5.152;2023-02-14T03:07:08;103428.53;;;1.41;83.55
51289;BME280;37372;52.294;5.152;2023-02-14T03:09:56;103418.59;;;1.41;83.56
51289;BME280;37372;52.294;5.152;2023-02-14T03:15:26;103412.75;;;1.34;83.57
51289;BME280;37372;52.294;5.152;2023-02-14T03:18:10;103417.97;;;1.38;83.43
51289;BME280;37372;52.294;5.152;2023-02-14T03:23:37;103414.16;;;1.40;83.89
51289;BME280;37372;52.294;5.152;2023-02-14T03:26:30;103413.09;;;1.30;83.34
51289;BME280;37372;52.294;5.152;2023-02-14T03:37:16;103407.56;;;1.31;83.79
51289;BME280;37372;52.294;5.152;2023-02-14T03:42:24;103401.84;;;1.49;84.04
51289;BME280;37372;52.294;5.152;2023-02-14T03:44:52;103409.31;;;1.45;83.45
51289;BME280;37372;52.294;5.152;2023-02-14T03:47:22;103406.72;;;1.44;83.70
51289;BME280;37372;52.294;5.152;2023-02-14T03:50:12;103393.94;;;1.46;83.82
51289;BME280;37372;52.294;5.152;2023-02-14T03:52:40;103401.84;;;1.49;83.63
51289;BME280;37372;52.294;5.152;2023-02-14T03:55:07;103399.16;;;1.49;83.92
51289;BME280;37372;52.294;5.152;2023-02-14T03:57:40;103401.84;;;1.49;83.90
51289;BME280;37372;52.294;5.152;2023-02-14T04:00:10;103399.78;;;1.40;83.51
51289;BME280;37372;52.294;5.152;2023-02-14T04:02:44;103403.03;;;1.32;83.61
51289;BME280;37372;52.294;5.152;2023-02-14T04:05:18;103402.28;;;1.30;84.22
51289;BME280;37372;52.294;5.152;2023-02-14T04:07:48;103406.91;;;1.41;84.94
51289;BME280;37372;52.294;5.152;2023-02-14T04:10:15;103402.72;;;1.49;84.81
51289;BME280;37372;52.294;5.152;2023-02-14T04:12:40;103404.97;;;1.55;84.75
51289;BME280;37372;52.294;5.152;2023-02-14T04:15:06;103402.78;;;1.60;85.24
51289;BME280;37372;52.294;5.152;2023-02-14T04:17:32;103401.72;;;1.63;85.35
51289;BME280;37372;52.294;5.152;2023-02-14T04:20:16;103408.00;;;1.63;84.87
51289;BME280;37372;52.294;5.152;2023-02-14T04:22:42;103406.81;;;1.55;84.56
51289;BME280;37372;52.294;5.152;2023-02-14T04:25:07;103401.00;;;1.48;84.36
51289;BME280;37372;52.294;5.152;2023-02-14T04:27:33;103397.50;;;1.46;84.42
51289;BME280;37372;52.294;5.152;2023-02-14T04:29:58;103397.38;;;1.48;84.75
51289;BME280;37372;52.294;5.152;2023-02-14T04:32:23;103398.47;;;1.45;84.51
51289;BME280;37372;52.294;5.152;2023-02-14T04:34:49;103392.41;;;1.42;83.91
51289;BME280;37372;52.294;5.152;2023-02-14T04:37:17;103395.78;;;1.32;83.90
51289;BME280;37372;52.294;5.152;2023-02-14T04:39:42;103391.09;;;1.22;83.56
51289;BME280;37372;52.294;5.152;2023-02-14T04:42:08;103394.03;;;1.19;84.09
51289;BME280;37372;52.294;5.152;2023-02-14T04:44:33;103400.41;;;1.18;84.17
51289;BME280;37372;52.294;5.152;2023-02-14T04:47:00;103394.22;;;1.16;83.61
51289;BME280;37372;52.294;5.152;2023-02-14T04:49:26;103390.91;;;1.12;84.18
51289;BME280;37372;52.294;5.152;2023-02-14T04:51:51;103398.44;;;1.07;83.93
51289;BME280;37372;52.294;5.152;2023-02-14T04:54:16;103393.47;;;1.01;83.89
51289;BME280;37372;52.294;5.152;2023-02-14T04:56:42;103401.47;;;1.02;84.23
51289;BME280;37372;52.294;5.152;2023-02-14T04:59:07;103403.31;;;1.02;84.02
51289;BME280;37372;52.294;5.152;2023-02-14T05:01:33;103401.03;;;0.96;83.38
51289;BME280;37372;52.294;5.152;2023-02-14T05:03:58;103403.72;;;0.96;83.99
51289;BME280;37372;52.294;5.152;2023-02-14T05:06:24;103394.13;;;0.92;83.69
51289;BME280;37372;52.294;5.152;2023-02-14T05:08:49;103390.28;;;0.81;83.29
51289;BME280;37372;52.294;5.152;2023-02-14T05:11:14;103396.53;;;0.69;83.37
51289;BME280;37372;52.294;5.152;2023-02-14T05:13:40;103393.06;;;0.67;83.81
51289;BME280;37372;52.294;5.152;2023-02-14T05:16:06;103399.84;;;0.60;83.47
51289;BME280;37372;52.294;5.152;2023-02-14T05:18:31;103396.41;;;0.58;83.28
51289;BME280;37372;52.294;5.152;2023-02-14T05:20:57;103397.16;;;0.60;83.80
51289;BME280;37372;52.294;5.152;2023-02-14T05:23:22;103390.78;;;0.61;83.69
51289;BME280;37372;52.294;5.152;2023-02-14T05:25:48;103395.03;;;0.65;84.63
51289;BME280;37372;52.294;5.152;2023-02-14T05:28:14;103396.63;;;0.68;83.92
51289;BME280;37372;52.294;5.152;2023-02-14T05:30:39;103394.03;;;0.66;84.12
51289;BME280;37372;52.294;5.152;2023-02-14T05:33:04;103405.72;;;0.67;83.91
51289;BME280;37372;52.294;5.152;2023-02-14T05:35:31;103400.09;;;0.70;84.37
51289;BME280;37372;52.294;5.152;2023-02-14T05:37:56;103398.50;;;0.80;85.25
51289;BME280;37372;52.294;5.152;2023-02-14T05:40:23;103398.00;;;1.00;85.74
51289;BME280;37372;52.294;5.152;2023-02-14T05:42:48;103397.16;;;1.13;86.37
51289;BME280;37372;52.294;5.152;2023-02-14T05:45:13;103394.03;;;1.19;85.75
51289;BME280;37372;52.294;5.152;2023-02-14T05:47:39;103384.63;;;1.24;85.89
51289;BME280;37372;52.294;5.152;2023-02-14T05:50:05;103380.09;;;1.25;85.70
51289;BME280;37372;52.294;5.152;2023-02-14T05:52:31;103378.38;;;1.24;85.64
51289;BME280;37372;52.294;5.152;2023-02-14T05:54:56;103381.06;;;1.24;85.71
51289;BME280;37372;52.294;5.152;2023-02-14T05:57:21;103376.22;;;1.29;85.96
51289;BME280;37372;52.294;5.152;2023-02-14T05:59:47;103384.09;;;1.32;86.51
51289;BME280;37372;52.294;5.152;2023-02-14T06:02:12;103384.22;;;1.30;86.16
51289;BME280;37372;52.294;5.152;2023-02-14T06:04:40;103389.81;;;1.27;86.03
51289;BME280;37372;52.294;5.152;2023-02-14T06:07:05;103383.66;;;1.25;85.59
51289;BME280;37372;52.294;5.152;2023-02-14T06:09:30;103392.50;;;1.15;84.81
51289;BME280;37372;52.294;5.152;2023-02-14T06:11:55;103387.63;;;1.07;85.04
51289;BME280;37372;52.294;5.152;2023-02-14T06:14:21;103391.75;;;1.00;85.34
51289;BME280;37372;52.294;5.152;2023-02-14T06:16:47;103383.88;;;0.97;85.00
51289;BME280;37372;52.294;5.152;2023-02-14T06:19:15;103382.22;;;0.94;84.84
51289;BME280;37372;52.294;5.152;2023-02-14T06:21:40;103389.75;;;0.89;84.75
51289;BME280;37372;52.294;5.152;2023-02-14T06:24:06;103391.59;;;0.89;84.96
51289;BME280;37372;52.294;5.152;2023-02-14T06:26:31;103384.34;;;0.89;85.23
51289;BME280;37372;52.294;5.152;2023-02-14T06:28:58;103388.81;;;0.90;85.25
51289;BME280;37372;52.294;5.152;2023-02-14T06:31:24;103390.44;;;0.93;85.46
51289;BME280;37372;52.294;5.152;2023-02-14T06:33:51;103396.16;;;1.01;85.67
51289;BME280;37372;52.294;5.152;2023-02-14T06:36:16;103388.81;;;1.03;85.33
51289;BME280;37372;52.294;5.152;2023-02-14T06:38:42;103386.59;;;1.10;85.83
51289;BME280;37372;52.294;5.152;2023-02-14T06:41:08;103391.09;;;1.09;85.63
51289;BME280;37372;52.294;5.152;2023-02-14T06:43:34;103378.34;;;1.11;85.71
51289;BME280;37372;52.294;5.152;2023-02-14T06:46:00;103384.50;;;1.13;85.83
51289;BME280;37372;52.294;5.152;2023-02-14T06:48:26;103387.22;;;1.13;85.72
51289;BME280;37372;52.294;5.152;2023-02-14T06:50:51;103387.44;;;1.10;85.44
51289;BME280;37372;52.294;5.152;2023-02-14T06:53:18;103383.53;;;1.01;84.76
51289;BME280;37372;52.294;5.152;2023-02-14T06:55:44;103385.47;;;0.99;85.16
51289;BME280;37372;52.294;5.152;2023-02-14T06:58:09;103380.25;;;0.96;84.64
51289;BME280;37372;52.294;5.152;2023-02-14T07:00:34;103382.09;;;0.96;84.35
51289;BME280;37372;52.294;5.152;2023-02-14T07:03:00;103379.41;;;0.96;84.65
51289;BME280;37372;52.294;5.152;2023-02-14T07:05:25;103382.53;;;1.02;85.40
51289;BME280;37372;52.294;5.152;2023-02-14T07:07:50;103388.50;;;1.07;85.41
51289;BME280;37372;52.294;5.152;2023-02-14T07:10:16;103381.25;;;1.08;84.94
51289;BME280;37372;52.294;5.152;2023-02-14T07:12:41;103386.59;;;1.10;85.20
51289;BME280;37372;52.294;5.152;2023-02-14T07:15:09;103386.66;;;1.08;85.06
51289;BME280;37372;52.294;5.152;2023-02-14T07:17:34;103389.28;;;1.10;85.02
51289;BME280;37372;52.294;5.152;2023-02-14T07:20:00;103386.59;;;1.10;84.64
51289;BME280;37372;52.294;5.152;2023-02-14T07:22:25;103379.22;;;1.12;84.96
51289;BME280;37372;52.294;5.152;2023-02-14T07:24:50;103381.50;;;1.18;85.46
51289;BME280;37372;52.294;5.152;2023-02-14T07:27:16;103382.38;;;1.18;85.40
51289;BME280;37372;52.294;5.152;2023-02-14T07:29:41;103377.50;;;1.23;85.33
51289;BME280;37372;52.294;5.152;2023-02-14T07:32:07;103374.47;;;1.28;85.70
51289;BME280;37372;52.294;5.152;2023-02-14T07:34:32;103379.66;;;1.31;85.77
51289;BME280;37372;52.294;5.152;2023-02-14T07:36:58;103392.22;;;1.32;85.97
51289;BME280;37372;52.294;5.152;2023-02-14T07:39:23;103385.50;;;1.38;85.55
51289;BME280;37372;52.294;5.152;2023-02-14T07:41:48;103390.81;;;1.39;85.95
51289;BME280;37372;52.294;5.152;2023-02-14T07:44:14;103389.69;;;1.42;86.55
51289;BME280;37372;52.294;5.152;2023-02-14T07:46:39;103384.84;;;1.47;86.28
51289;BME280;37372;52.294;5.152;2023-02-14T07:49:04;103386.25;;;1.52;86.09
51289;BME280;37372;52.294;5.152;2023-02-14T07:51:30;103386.78;;;1.57;85.97
51289;BME280;37372;52.294;5.152;2023-02-14T07:53:55;103390.78;;;1.65;86.14
51289;BME280;37372;52.294;5.152;2023-02-14T07:56:20;103393.91;;;1.71;85.89
51289;BME280;37372;52.294;5.152;2023-02-14T07:58:46;103391.97;;;1.73;85.80
51289;BME280;37372;52.294;5.152;2023-02-14T08:01:13;103391.09;;;1.73;85.72
51289;BME280;37372;52.294;5.152;2023-02-14T08:03:39;103393.16;;;1.82;85.87
51289;BME280;37372;52.294;5.152;2023-02-14T08:06:05;103394.56;;;1.87;85.52
51289;BME280;37372;52.294;5.152;2023-02-14T08:08:30;103401.03;;;1.85;85.09
51289;BME280;37372;52.294;5.152;2023-02-14T08:10:57;103395.41;;;1.88;85.57
51289;BME280;37372;52.294;5.152;2023-02-14T08:13:22;103394.19;;;1.92;85.52
51289;BME280;37372;52.294;5.152;2023-02-14T08:15:48;103390.84;;;2.01;85.83
51289;BME280;37372;52.294;5.152;2023-02-14T08:18:37;103391.38;;;2.06;85.63
51289;BME280;37372;52.294;5.152;2023-02-14T08:21:04;103393.72;;;2.11;85.41
51289;BME280;37372;52.294;5.152;2023-02-14T08:23:30;103396.97;;;2.16;85.61
51289;BME280;37372;52.294;5.152;2023-02-14T08:25:55;103397.50;;;2.21;85.56
51289;BME280;37372;52.294;5.152;2023-02-14T08:28:21;103397.25;;;2.24;85.55
51289;BME280;37372;52.294;5.152;2023-02-14T08:30:47;103400.75;;;2.26;85.16
51289;BME280;37372;52.294;5.152;2023-02-14T08:33:13;103399.63;;;2.29;85.52
51289;BME280;37372;52.294;5.152;2023-02-14T08:35:38;103405.69;;;2.32;85.25
51289;BME280;37372;52.294;5.152;2023-02-14T08:38:04;103400.69;;;2.39;85.62
51289;BME280;37372;52.294;5.152;2023-02-14T08:40:29;103400.84;;;2.49;85.59
51289;BME280;37372;52.294;5.152;2023-02-14T08:42:55;103405.16;;;2.51;85.28
51289;BME280;37372;52.294;5.152;2023-02-14T08:45:20;103400.63;;;2.52;85.11
51289;BME280;37372;52.294;5.152;2023-02-14T08:47:46;103403.09;;;2.55;85.50
51289;BME280;37372;52.294;5.152;2023-02-14T08:50:14;103405.09;;;2.64;85.60
51289;BME280;37372;52.294;5.152;2023-02-14T08:52:41;103400.13;;;2.70;85.39
51289;BME280;37372;52.294;5.152;2023-02-14T08:55:09;103405.03;;;2.77;85.63
51289;BME280;37372;52.294;5.152;2023-02-14T08:57:35;103402.13;;;2.80;85.25
51289;BME280;37372;52.294;5.152;2023-02-14T09:00:00;103397.31;;;2.83;85.19
51289;BME280;37372;52.294;5.152;2023-02-14T09:02:25;103395.88;;;2.90;85.72
51289;BME280;37372;52.294;5.152;2023-02-14T09:04:51;103398.22;;;2.95;85.01
51289;BME280;37372;52.294;5.152;2023-02-14T09:07:16;103397.75;;;3.01;85.41
51289;BME280;37372;52.294;5.152;2023-02-14T09:09:43;103392.84;;;3.06;85.08
51289;BME280;37372;52.294;5.152;2023-02-14T09:12:08;103394.94;;;3.14;85.62
51289;BME280;37372;52.294;5.152;2023-02-14T09:14:35;103389.03;;;3.20;85.70
51289;BME280;37372;52.294;5.152;2023-02-14T09:17:01;103398.34;;;3.29;85.76
51289;BME280;37372;52.294;5.152;2023-02-14T09:19:33;103389.97;;;3.43;86.17
51289;BME280;37372;52.294;5.152;2023-02-14T09:21:59;103390.34;;;3.49;86.13
51289;BME280;37372;52.294;5.152;2023-02-14T09:24:25;103392.66;;;3.54;85.83
51289;BME280;37372;52.294;5.152;2023-02-14T09:26:53;103380.47;;;3.60;86.00
51289;BME280;37372;52.294;5.152;2023-02-14T09:29:21;103378.25;;;3.65;85.79
51289;BME280;37372;52.294;5.152;2023-02-14T09:31:46;103385.03;;;3.70;85.88
51289;BME280;37372;52.294;5.152;2023-02-14T09:34:12;103377.75;;;3.82;86.74
51289;BME280;37372;52.294;5.152;2023-02-14T09:36:38;103377.50;;;3.96;86.43
51289;BME280;37372;52.294;5.152;2023-02-14T09:39:03;103370.94;;;3.99;85.95
51289;BME280;37372;52.294;5.152;2023-02-14T09:44:06;103372.06;;;4.07;86.17
51289;BME280;37372;52.294;5.152;2023-02-14T09:46:40;103372.53;;;4.13;85.88
51289;BME280;37372;52.294;5.152;2023-02-14T09:49:12;103371.78;;;4.22;86.06
51289;BME280;37372;52.294;5.152;2023-02-14T09:51:44;103379.78;;;4.34;85.87
51289;BME280;37372;52.294;5.152;2023-02-14T09:54:15;103384.81;;;4.39;86.05
51289;BME280;37372;52.294;5.152;2023-02-14T09:57:03;103377.63;;;4.49;86.15
51289;BME280;37372;52.294;5.152;2023-02-14T10:10:45;103381.59;;;4.77;85.50
51289;BME280;37372;52.294;5.152;2023-02-14T10:16:27;103373.31;;;5.00;85.56
51289;BME280;37372;52.294;5.152;2023-02-14T10:22:10;103379.81;;;5.08;84.48
51289;BME280;37372;52.294;5.152;2023-02-14T10:24:49;103375.31;;;5.19;84.04
51289;BME280;37372;52.294;5.152;2023-02-14T10:27:36;103369.88;;;5.19;83.91
51289;BME280;37372;52.294;5.152;2023-02-14T10:30:18;103365.75;;;5.24;84.07
51289;BME280;37372;52.294;5.152;2023-02-14T10:32:59;103368.81;;;5.31;83.87
51289;BME280;37372;52.294;5.152;2023-02-14T10:35:50;103368.53;;;5.34;83.59
51289;BME280;37372;52.294;5.152;2023-02-14T10:38:23;103365.41;;;5.38;83.92
51289;BME280;37372;52.294;5.152;2023-02-14T10:46:30;103355.31;;;5.50;83.38
51289;BME280;37372;52.294;5.152;2023-02-14T10:49:24;103357.38;;;5.98;80.90
51289;BME280;37372;52.294;5.152;2023-02-14T10:52:00;103351.09;;;6.07;78.36
51289;BME280;37372;52.294;5.152;2023-02-14T10:54:41;103350.81;;;6.10;78.61
51289;BME280;37372;52.294;5.152;2023-02-14T10:57:18;103351.97;;;6.17;77.35
51289;BME280;37372;52.294;5.152;2023-02-14T10:59:56;103348.94;;;6.11;77.77
51289;BME280;37372;52.294;5.152;2023-02-14T11:02:37;103359.59;;;6.23;77.77
51289;BME280;37372;52.294;5.152;2023-02-14T11:05:05;103350.84;;;6.30;77.82
51289;BME280;37372;52.294;5.152;2023-02-14T11:07:31;103353.16;;;6.34;77.94
51289;BME280;37372;52.294;5.152;2023-02-14T11:09:57;103351.03;;;6.38;77.42
51289;BME280;37372;52.294;5.152;2023-02-14T11:12:37;103356.34;;;6.39;76.39
51289;BME280;37372;52.294;5.152;2023-02-14T11:15:19;103353.75;;;6.38;77.70
51289;BME280;37372;52.294;5.152;2023-02-14T11:17:45;103356.06;;;6.52;76.42
51289;BME280;37372;52.294;5.152;2023-02-14T11:22:42;103349.84;;;6.50;75.82
51289;BME280;37372;52.294;5.152;2023-02-14T11:25:25;103346.72;;;6.45;76.23
51289;BME280;37372;52.294;5.152;2023-02-14T11:28:03;103342.28;;;6.54;76.41
51289;BME280;37372;52.294;5.152;2023-02-14T11:30:34;103339.84;;;6.60;76.31
51289;BME280;37372;52.294;5.152;2023-02-14T11:33:01;103345.84;;;6.54;76.33
51289;BME280;37372;52.294;5.152;2023-02-14T11:35:29;103340.56;;;6.53;76.31
51289;BME280;37372;52.294;5.152;2023-02-14T11:38:01;103339.25;;;6.66;75.69
51289;BME280;37372;52.294;5.152;2023-02-14T11:40:30;103334.50;;;6.68;76.09
51289;BME280;37372;52.294;5.152;2023-02-14T11:45:39;103322.91;;;6.66;75.73
51289;BME280;37372;52.294;5.152;2023-02-14T11:48:25;103319.16;;;6.67;76.07
51289;BME280;37372;52.294;5.152;2023-02-14T11:51:04;103316.59;;;6.66;76.26
51289;BME280;37372;52.294;5.152;2023-02-14T11:53:43;103306.38;;;6.68;76.07
51289;BME280;37372;52.294;5.152;2023-02-14T11:56:10;103300.50;;;6.72;76.13
51289;BME280;37372;52.294;5.152;2023-02-14T11:58:36;103304.66;;;6.76;76.16
51289;BME280;37372;52.294;5.152;2023-02-14T12:01:04;103298.31;;;6.76;76.29
51289;BME280;37372;52.294;5.152;2023-02-14T12:03:37;103285.84;;;6.73;76.18
51289;BME280;37372;52.294;5.152;2023-02-14T12:06:04;103277.94;;;6.80;76.17
51289;BME280;37372;52.294;5.152;2023-02-14T12:08:30;103277.50;;;6.85;75.77
51289;BME280;37372;52.294;5.152;2023-02-14T12:11:04;103276.19;;;6.89;75.40
51289;BME280;37372;52.294;5.152;2023-02-14T12:13:31;103273.03;;;6.93;75.43
51289;BME280;37372;52.294;5.152;2023-02-14T12:15:57;103271.00;;;7.05;74.50
51289;BME280;37372;52.294;5.152;2023-02-14T12:18:41;103262.22;;;7.11;74.87
51289;BME280;37372;52.294;5.152;2023-02-14T12:24:12;103246.47;;;7.32;73.12
51289;BME280;37372;52.294;5.152;2023-02-14T12:26:44;103251.41;;;7.47;72.75
51289;BME280;37372;52.294;5.152;2023-02-14T12:29:39;103243.22;;;7.47;72.46
51289;BME280;37372;52.294;5.152;2023-02-14T12:32:26;103243.44;;;7.63;71.44
51289;BME280;37372;52.294;5.152;2023-02-14T12:35:01;103250.94;;;7.61;71.81
51289;BME280;37372;52.294;5.152;2023-02-14T12:40:21;103246.16;;;7.63;70.76
51289;BME280;37372;52.294;5.152;2023-02-14T12:51:01;103226.34;;;7.61;71.45
51289;BME280;37372;52.294;5.152;2023-02-14T12:53:44;103223.91;;;7.58;72.01
51289;BME280;37372;52.294;5.152;2023-02-14T12:59:11;103219.00;;;7.62;71.53
51289;BME280;37372;52.294;5.152;2023-02-14T13:05:05;103203.34;;;7.81;70.60
51289;BME280;37372;52.294;5.152;2023-02-14T13:07:40;103198.59;;;8.19;68.42
51289;BME280;37372;52.294;5.152;2023-02-14T13:12:48;103191.31;;;8.46;66.01
51289;BME280;37372;52.294;5.152;2023-02-14T13:15:45;103196.72;;;8.20;67.38
51289;BME280;37372;52.294;5.152;2023-02-14T13:20:57;103189.59;;;8.09;68.20
51289;BME280;37372;52.294;5.152;2023-02-14T13:23:32;103185.94;;;8.18;66.68
51289;BME280;37372;52.294;5.152;2023-02-14T13:26:05;103186.69;;;8.10;67.29
51289;BME280;37372;52.294;5.152;2023-02-14T13:28:31;103175.63;;;8.12;66.38
51289;BME280;37372;52.294;5.152;2023-02-14T13:30:59;103169.53;;;8.00;66.80
51289;BME280;37372;52.294;5.152;2023-02-14T13:33:37;103169.94;;;8.05;66.74
51289;BME280;37372;52.294;5.152;2023-02-14T13:36:07;103174.28;;;8.16;67.37
51289;BME280;37372;52.294;5.152;2023-02-14T13:38:47;103155.47;;;8.13;67.09
51289;BME280;37372;52.294;5.152;2023-02-14T13:41:14;103154.47;;;8.14;66.45
51289;BME280;37372;52.294;5.152;2023-02-14T13:46:46;103152.84;;;8.29;66.64
51289;BME280;37372;52.294;5.152;2023-02-14T13:51:56;103142.94;;;8.28;65.91
51289;BME280;37372;52.294;5.152;2023-02-14T13:54:33;103150.00;;;8.31;66.17
51289;BME280;37372;52.294;5.152;2023-02-14T13:57:01;103153.66;;;8.39;65.37
51289;BME280;37372;52.294;5.152;2023-02-14T13:59:33;103145.69;;;8.46;64.37
51289;BME280;37372;52.294;5.152;2023-02-14T14:04:53;103156.06;;;8.43;64.52
51289;BME280;37372;52.294;5.152;2023-02-14T14:07:24;103147.50;;;8.63;63.14
51289;BME280;37372;52.294;5.152;2023-02-14T14:09:53;103151.75;;;8.58;63.71
51289;BME280;37372;52.294;5.152;2023-02-14T14:22:57;103139.19;;;8.47;64.26
51289;BME280;37372;52.294;5.152;2023-02-14T14:25:38;103136.06;;;8.42;63.99
51289;BME280;37372;52.294;5.152;2023-02-14T14:28:21;103135.84;;;8.35;64.48
51289;BME280;37372;52.294;5.152;2023-02-14T14:30:48;103141.31;;;8.35;64.29
51289;BME280;37372;52.294;5.152;2023-02-14T14:33:34;103132.38;;;8.33;64.36
51289;BME280;37372;52.294;5.152;2023-02-14T14:36:07;103144.44;;;8.40;64.03
51289;BME280;37372;52.294;5.152;2023-02-14T14:38:45;103138.97;;;8.40;64.41
51289;BME280;37372;52.294;5.152;2023-02-14T14:41:11;103134.09;;;8.34;64.62
51289;BME280;37372;52.294;5.152;2023-02-14T14:43:38;103141.88;;;8.39;64.32
51289;BME280;37372;52.294;5.152;2023-02-14T14:46:07;103138.97;;;8.40;64.46
51289;BME280;37372;52.294;5.152;2023-02-14T14:48:36;103138.09;;;8.40;64.42
51289;BME280;37372;52.294;5.152;2023-02-14T14:51:05;103137.25;;;8.39;64.67
51289;BME280;37372;52.294;5.152;2023-02-14T14:56:11;103137.69;;;8.35;64.76
51289;BME280;37372;52.294;5.152;2023-02-14T14:58:39;103129.09;;;8.30;65.17
51289;BME280;37372;52.294;5.152;2023-02-14T15:01:08;103128.53;;;8.18;65.81
51289;BME280;37372;52.294;5.152;2023-02-14T15:03:35;103140.22;;;8.28;65.80
51289;BME280;37372;52.294;5.152;2023-02-14T15:06:21;103136.63;;;8.46;63.79
51289;BME280;37372;52.294;5.152;2023-02-14T15:08:47;103135.84;;;8.35;64.96
51289;BME280;37372;52.294;5.152;2023-02-14T15:11:18;103133.03;;;8.27;65.36
51289;BME280;37372;52.294;5.152;2023-02-14T15:14:05;103131.84;;;8.30;65.93